This is the latest recevied weather packets stored in our database for station/object DC8RAI-12. If no packets are shown the sender has not sent any weather packets the latest 10 day(s).
| Time | Temp. | Humidity | Pressure | Rain* | Wind** | Luminosity | Snow |
|---|---|---|---|---|---|---|---|
| 1777571092 | 11.67° C | 32% | 1025.2 hPa | - | - | - | - |
| 1777570192 | 12.22° C | 28% | 1025.2 hPa | - | - | - | - |
| 1777569292 | 12.78° C | 30% | 1025.2 hPa | - | - | - | - |
| 1777568392 | 12.78° C | 26% | 1025.2 hPa | - | - | - | - |
| 1777567492 | 13.33° C | 28% | 1025.1 hPa | - | - | - | - |
| 1777566592 | 13.89° C | 25% | 1025.2 hPa | - | - | - | - |
| 1777565692 | 14.44° C | 25% | 1025.1 hPa | - | - | - | - |
| 1777564792 | 15° C | 22% | 1025 hPa | - | - | - | - |
| 1777563891 | 16.11° C | 23% | 1025 hPa | - | - | - | - |
| 1777562991 | 16.11° C | 20% | 1025 hPa | - | - | - | - |
| 1777562091 | 17.22° C | 20% | 1024.9 hPa | - | - | - | - |
| 1777561191 | 17.78° C | 21% | 1024.9 hPa | - | - | - | - |
| 1777560291 | 17.22° C | 18% | 1024.9 hPa | - | - | - | - |
| 1777559391 | 18.33° C | 19% | 1024.8 hPa | - | - | - | - |
| 1777558491 | 16.67° C | 19% | 1025.1 hPa | - | - | - | - |
| 1777557591 | 18.33° C | 18% | 1025.1 hPa | - | - | - | - |
| 1777556691 | 16.67° C | 18% | 1025.2 hPa | - | - | - | - |
| 1777555790 | 17.78° C | 20% | 1025.3 hPa | - | - | - | - |
| 1777554889 | 17.78° C | 18% | 1025.3 hPa | - | - | - | - |
| 1777553989 | 17.78° C | 19% | 1025.4 hPa | - | - | - | - |
| 1777553091 | 17.22° C | 20% | 1025.4 hPa | - | - | - | - |
| 1777552191 | 17.78° C | 19% | 1025.5 hPa | - | - | - | - |
| 1777551291 | 17.22° C | 22% | 1025.7 hPa | - | - | - | - |
| 1777550391 | 17.78° C | 19% | 1025.7 hPa | - | - | - | - |
| 1777549490 | 16.11° C | 18% | 1025.7 hPa | - | - | - | - |
* Rain since midnight (hover to see other rain measurements)
** Current wind speed in m/s (hover to see current wind gust speed)